Time;durP1;ratioP1;P1;durP2;ratioP2;P2;SDS_P1;SDS_P2;PMS_P1;PMS_P2;Temp;Humidity;BMP_temperature;BMP_pressure;BME280_temperature;BME280_humidity;BME280_pressure;Samples;Min_cycle;Max_cycle;Signal;HPM_P1;HPM_P2
2022/11/21 00:01:44;;;;;;;;;;;4.20;99.90;;;;;;5014986;28;20261;-74
2022/11/21 00:04:15;;;;;;;;;;;4.30;99.90;;;;;;5008829;28;19925;-73
2022/11/21 00:06:48;;;;;;;;;;;4.20;99.90;;;;;;5034495;28;19928;-75
2022/11/21 00:09:20;;;;;;;;;;;4.20;99.90;;;;;;5018473;28;19987;-74
2022/11/21 00:11:52;;;;;;;;;;;4.20;99.90;;;;;;5034038;28;19991;-74
2022/11/21 00:14:18;;;;;;;;;;;4.20;99.90;;;;;;5053358;28;19925;-75
2022/11/21 00:16:50;;;;;;;;;;;4.20;99.90;;;;;;5027040;28;19978;-74
2022/11/21 00:19:21;;;;;;;;;;;4.20;99.90;;;;;;5017014;28;20342;-74
2022/11/21 00:21:53;;;;;;;;;;;4.20;99.90;;;;;;5017065;28;20456;-74
2022/11/21 00:24:24;;;;;;;;;;;4.20;99.90;;;;;;5036264;28;20174;-74
2022/11/21 00:26:56;;;;;;;;;;;4.10;99.90;;;;;;5046560;28;19931;-75
2022/11/21 00:29:27;;;;;;;;;;;4.10;99.90;;;;;;5049609;28;20042;-75
2022/11/21 00:31:59;;;;;;;;;;;4.10;99.90;;;;;;5047179;28;20406;-74
2022/11/21 00:34:30;;;;;;;;;;;4.10;99.90;;;;;;5036075;28;19928;-74
2022/11/21 00:37:02;;;;;;;;;;;4.20;99.90;;;;;;5017075;28;19977;-74
2022/11/21 00:39:34;;;;;;;;;;;4.20;99.90;;;;;;5032913;28;20379;-73
2022/11/21 00:42:05;;;;;;;;;;;4.20;99.90;;;;;;5033940;28;19925;-74
2022/11/21 00:44:32;;;;;;;;;;;4.20;99.90;;;;;;5018562;28;20330;-75
2022/11/21 00:47:03;;;;;;;;;;;4.20;99.90;;;;;;5026336;28;20398;-74
2022/11/21 00:49:35;;;;;;;;;;;4.20;99.90;;;;;;5032702;28;19978;-74
2022/11/21 00:52:06;;;;;;;;;;;4.20;99.90;;;;;;5036256;28;20042;-73
2022/11/21 00:54:33;;;;;;;;;;;4.20;99.90;;;;;;5043194;28;19975;-74
2022/11/21 00:57:05;;;;;;;;;;;4.20;99.90;;;;;;5039007;28;19932;-75
2022/11/21 00:59:31;;;;;;;;;;;4.30;99.90;;;;;;5032476;28;19998;-74
2022/11/21 01:02:04;;;;;;;;;;;4.30;99.90;;;;;;5031729;28;19978;-74
2022/11/21 01:04:35;;;;;;;;;;;4.30;99.90;;;;;;5032319;28;19975;-73
2022/11/21 01:07:07;;;;;;;;;;;4.40;99.90;;;;;;5027498;28;19936;-74
2022/11/21 01:09:38;;;;;;;;;;;4.40;99.90;;;;;;5050746;28;20295;-74
2022/11/21 01:12:05;;;;;;;;;;;4.50;99.90;;;;;;5030979;28;20465;-74
2022/11/21 01:14:37;;;;;;;;;;;4.40;99.90;;;;;;5034356;28;19924;-74
2022/11/21 01:17:08;;;;;;;;;;;4.40;99.90;;;;;;5025204;28;19983;-75
2022/11/21 01:19:40;;;;;;;;;;;4.40;99.90;;;;;;5016525;28;19931;-74
2022/11/21 01:22:11;;;;;;;;;;;4.40;99.90;;;;;;5032668;28;20000;-74
2022/11/21 01:24:38;;;;;;;;;;;4.40;99.90;;;;;;5052523;28;19925;-74
2022/11/21 01:27:09;;;;;;;;;;;4.40;99.90;;;;;;5050299;28;20369;-74
2022/11/21 01:29:41;;;;;;;;;;;4.30;99.90;;;;;;5017536;28;20473;-73
2022/11/21 01:32:13;;;;;;;;;;;4.30;99.90;;;;;;5031440;28;19925;-74
2022/11/21 01:34:39;;;;;;;;;;;4.30;99.90;;;;;;5026968;28;19925;-72
2022/11/21 01:37:11;;;;;;;;;;;4.30;99.90;;;;;;5048092;28;19929;-74
2022/11/21 01:39:37;;;;;;;;;;;4.30;99.90;;;;;;5030250;28;19925;-73
2022/11/21 01:42:11;;;;;;;;;;;4.30;99.90;;;;;;5048645;28;19975;-74
2022/11/21 01:44:50;;;;;;;;;;;4.30;99.90;;;;;;5018256;28;19925;-74
2022/11/21 01:47:22;;;;;;;;;;;4.30;99.90;;;;;;5033607;28;19936;-73
2022/11/21 01:49:55;;;;;;;;;;;4.20;99.90;;;;;;5034919;28;19932;-73
2022/11/21 01:52:29;;;;;;;;;;;4.30;99.90;;;;;;5046399;28;19929;-73
2022/11/21 01:55:01;;;;;;;;;;;4.30;99.90;;;;;;5043420;28;19983;-71
2022/11/21 01:57:41;;;;;;;;;;;4.20;99.90;;;;;;5021222;28;19929;-72
2022/11/21 02:00:11;;;;;;;;;;;4.20;99.90;;;;;;5032257;28;19955;-73
2022/11/21 02:02:46;;;;;;;;;;;4.30;99.90;;;;;;5033602;28;19929;-72
2022/11/21 02:05:22;;;;;;;;;;;4.30;99.90;;;;;;5033442;28;19979;-73
2022/11/21 02:07:55;;;;;;;;;;;4.30;99.90;;;;;;5046884;28;19936;-73
2022/11/21 02:10:27;;;;;;;;;;;4.40;99.90;;;;;;5034074;28;19929;-73
2022/11/21 02:12:57;;;;;;;;;;;4.40;99.90;;;;;;5045337;28;19925;-73
2022/11/21 02:15:29;;;;;;;;;;;4.40;99.90;;;;;;5033410;28;19925;-73
2022/11/21 02:18:00;;;;;;;;;;;4.40;99.90;;;;;;5033203;28;20461;-72
2022/11/21 02:20:32;;;;;;;;;;;4.50;99.90;;;;;;5051699;28;19925;-73
2022/11/21 02:23:04;;;;;;;;;;;4.50;99.90;;;;;;5050700;28;19924;-72
2022/11/21 02:25:36;;;;;;;;;;;4.50;99.90;;;;;;5043241;28;20493;-73
2022/11/21 02:28:10;;;;;;;;;;;4.50;99.90;;;;;;5045894;28;20299;-72
2022/11/21 02:30:38;;;;;;;;;;;4.50;99.90;;;;;;5036991;28;19925;-72
2022/11/21 02:33:05;;;;;;;;;;;4.40;99.90;;;;;;5037396;28;20345;-72
2022/11/21 02:35:36;;;;;;;;;;;4.40;99.90;;;;;;5037482;28;20381;-73
2022/11/21 02:38:20;;;;;;;;;;;4.40;99.90;;;;;;5035585;28;19957;-71
2022/11/21 02:41:04;;;;;;;;;;;4.30;99.90;;;;;;5021350;28;20357;-73
2022/11/21 02:43:45;;;;;;;;;;;4.30;99.90;;;;;;5052136;28;19979;-73
2022/11/21 02:46:17;;;;;;;;;;;4.30;99.90;;;;;;5054376;28;19974;-74
2022/11/21 02:48:49;;;;;;;;;;;4.40;99.90;;;;;;5036177;28;19932;-73
2022/11/21 02:51:20;;;;;;;;;;;4.30;99.90;;;;;;5030089;28;19925;-73
2022/11/21 02:53:52;;;;;;;;;;;4.30;99.90;;;;;;5036566;28;19932;-72
2022/11/21 02:56:19;;;;;;;;;;;4.30;99.90;;;;;;5054096;28;19990;-73
2022/11/21 02:58:45;;;;;;;;;;;4.40;99.90;;;;;;5035439;28;19970;-73
2022/11/21 03:01:12;;;;;;;;;;;4.30;99.90;;;;;;5019646;28;19929;-73
2022/11/21 03:03:43;;;;;;;;;;;4.30;99.90;;;;;;5017002;28;19925;-73
2022/11/21 03:06:15;;;;;;;;;;;4.30;99.90;;;;;;5017112;28;19979;-73
2022/11/21 03:08:47;;;;;;;;;;;4.30;99.90;;;;;;5032941;28;19959;-73
2022/11/21 03:11:18;;;;;;;;;;;4.30;99.90;;;;;;5034961;28;19925;-73
2022/11/21 03:13:50;;;;;;;;;;;4.40;99.90;;;;;;5036511;28;19928;-73
2022/11/21 03:16:21;;;;;;;;;;;4.40;99.90;;;;;;5026690;28;20272;-74
2022/11/21 03:18:53;;;;;;;;;;;4.40;99.90;;;;;;5034850;28;19929;-73
2022/11/21 03:21:24;;;;;;;;;;;4.40;99.90;;;;;;5037095;28;19928;-72
2022/11/21 03:23:51;;;;;;;;;;;4.40;99.90;;;;;;5027791;28;19983;-73
2022/11/21 03:26:23;;;;;;;;;;;4.40;99.90;;;;;;5031668;28;19932;-74
2022/11/21 03:28:49;;;;;;;;;;;4.40;99.90;;;;;;5017756;28;19925;-74
2022/11/21 03:31:21;;;;;;;;;;;4.40;99.90;;;;;;5033178;28;19932;-73
2022/11/21 03:33:52;;;;;;;;;;;4.40;99.90;;;;;;5008792;28;19933;-73
2022/11/21 03:36:19;;;;;;;;;;;4.40;99.90;;;;;;5035429;28;19925;-73
2022/11/21 03:38:51;;;;;;;;;;;4.40;99.90;;;;;;5040323;28;19924;-73
2022/11/21 03:41:29;;;;;;;;;;;4.40;99.90;;;;;;5018917;28;19929;-74
2022/11/21 03:44:02;;;;;;;;;;;4.40;99.90;;;;;;5035714;28;19929;-73
2022/11/21 03:46:29;;;;;;;;;;;4.30;99.90;;;;;;5034145;28;19929;-73
2022/11/21 03:49:01;;;;;;;;;;;4.30;99.90;;;;;;5040810;28;19928;-73
2022/11/21 03:51:33;;;;;;;;;;;4.30;99.90;;;;;;5035577;28;20063;-73
2022/11/21 03:54:05;;;;;;;;;;;4.30;99.90;;;;;;5032941;28;19925;-73
2022/11/21 03:56:40;;;;;;;;;;;4.30;99.90;;;;;;5032710;28;20449;-73
2022/11/21 03:59:12;;;;;;;;;;;4.20;99.90;;;;;;5018637;28;19975;-72
2022/11/21 04:01:43;;;;;;;;;;;4.20;99.90;;;;;;5027473;28;19979;-74
2022/11/21 04:04:15;;;;;;;;;;;4.20;99.90;;;;;;5047269;28;20295;-73
2022/11/21 04:06:47;;;;;;;;;;;4.20;99.90;;;;;;5027246;28;19995;-73
2022/11/21 04:09:18;;;;;;;;;;;4.10;99.90;;;;;;5019070;28;19929;-72
2022/11/21 04:11:50;;;;;;;;;;;4.10;99.90;;;;;;5026894;28;19924;-74
2022/11/21 04:14:21;;;;;;;;;;;4.10;99.90;;;;;;5023542;28;20346;-74
2022/11/21 04:16:53;;;;;;;;;;;4.20;99.90;;;;;;5049449;28;19933;-72
2022/11/21 04:19:24;;;;;;;;;;;4.20;99.90;;;;;;5031796;28;19976;-74
2022/11/21 04:21:56;;;;;;;;;;;4.20;99.90;;;;;;5033169;28;20540;-74
2022/11/21 04:24:27;;;;;;;;;;;4.20;99.90;;;;;;5034460;28;19975;-73
2022/11/21 04:26:59;;;;;;;;;;;4.20;99.90;;;;;;5031178;28;19991;-73
2022/11/21 04:29:30;;;;;;;;;;;4.10;99.90;;;;;;5034657;28;19929;-73
2022/11/21 04:32:02;;;;;;;;;;;4.10;99.90;;;;;;5034992;28;19940;-73
2022/11/21 04:34:34;;;;;;;;;;;4.10;99.90;;;;;;5019599;28;19931;-73
2022/11/21 04:37:05;;;;;;;;;;;4.10;99.90;;;;;;5038079;28;19979;-73
2022/11/21 04:39:37;;;;;;;;;;;4.10;99.90;;;;;;5018894;28;19991;-73
2022/11/21 04:42:08;;;;;;;;;;;4.10;99.90;;;;;;5018647;28;20284;-73
2022/11/21 04:44:40;;;;;;;;;;;4.10;99.90;;;;;;5052833;28;19929;-75
2022/11/21 04:47:11;;;;;;;;;;;4.10;99.90;;;;;;5052473;28;19931;-73
2022/11/21 04:49:43;;;;;;;;;;;4.00;99.90;;;;;;5051776;28;19956;-73
2022/11/21 04:52:14;;;;;;;;;;;4.00;99.90;;;;;;5035687;28;19928;-75
2022/11/21 04:54:46;;;;;;;;;;;4.00;99.90;;;;;;5043395;28;19925;-72
2022/11/21 04:57:18;;;;;;;;;;;4.00;99.90;;;;;;5019310;28;21997;-73
2022/11/21 04:59:50;;;;;;;;;;;4.00;99.90;;;;;;5052530;28;19933;-71
2022/11/21 05:02:21;;;;;;;;;;;4.00;99.90;;;;;;5048346;28;20349;-73
2022/11/21 05:04:53;;;;;;;;;;;3.90;99.90;;;;;;5043687;28;19929;-73
2022/11/21 05:07:24;;;;;;;;;;;3.90;99.90;;;;;;5034100;28;19929;-74
2022/11/21 05:09:56;;;;;;;;;;;3.80;99.90;;;;;;5035789;28;19925;-73
2022/11/21 05:15:18;;;;;;;;;;;3.80;99.90;;;;;;5052423;28;19979;-73
2022/11/21 05:17:50;;;;;;;;;;;3.80;99.90;;;;;;5033571;28;19975;-72
2022/11/21 05:20:21;;;;;;;;;;;3.80;99.90;;;;;;5036698;28;19925;-72
2022/11/21 05:22:53;;;;;;;;;;;3.70;99.90;;;;;;5035512;28;19935;-73
2022/11/21 05:25:19;;;;;;;;;;;3.80;99.90;;;;;;5025949;28;19966;-72
2022/11/21 05:27:54;;;;;;;;;;;3.80;99.90;;;;;;5032159;28;20287;-74
2022/11/21 05:30:21;;;;;;;;;;;3.80;99.90;;;;;;5017771;28;19935;-73
2022/11/21 05:32:52;;;;;;;;;;;3.80;99.90;;;;;;5019624;28;19933;-75
2022/11/21 05:35:19;;;;;;;;;;;3.80;99.90;;;;;;5034961;28;21008;-73
2022/11/21 05:37:45;;;;;;;;;;;3.70;99.90;;;;;;5016433;28;19924;-73
2022/11/21 05:40:17;;;;;;;;;;;3.70;99.90;;;;;;5052814;28;19925;-73
2022/11/21 05:45:39;;;;;;;;;;;3.70;99.90;;;;;;5049591;28;19931;-75
2022/11/21 05:48:10;;;;;;;;;;;3.70;99.90;;;;;;5032074;28;19928;-74
2022/11/21 05:50:45;;;;;;;;;;;3.80;99.90;;;;;;5015014;28;19974;-74
2022/11/21 05:53:17;;;;;;;;;;;3.80;99.90;;;;;;5041900;28;19960;-72
2022/11/21 05:55:49;;;;;;;;;;;3.80;99.90;;;;;;5016577;28;20117;-74
2022/11/21 05:58:20;;;;;;;;;;;3.80;99.90;;;;;;5014430;28;19970;-73
2022/11/21 06:00:55;;;;;;;;;;;3.80;99.90;;;;;;5026216;28;19929;-73
2022/11/21 06:03:29;;;;;;;;;;;3.70;99.90;;;;;;5033319;28;19931;-74
2022/11/21 06:06:05;;;;;;;;;;;3.70;99.90;;;;;;5021435;28;19979;-74
2022/11/21 06:08:33;;;;;;;;;;;3.70;99.90;;;;;;5016991;28;19936;-73
2022/11/21 06:11:05;;;;;;;;;;;3.70;99.90;;;;;;5036453;28;20029;-74
2022/11/21 06:13:35;;;;;;;;;;;3.70;99.90;;;;;;5022894;28;20334;-74
2022/11/21 06:16:11;;;;;;;;;;;3.70;99.90;;;;;;5029561;28;19979;-73
2022/11/21 06:18:44;;;;;;;;;;;3.70;99.90;;;;;;5039513;28;19929;-75
2022/11/21 06:21:18;;;;;;;;;;;3.70;99.90;;;;;;5038756;28;19924;-73
2022/11/21 06:23:51;;;;;;;;;;;3.60;99.90;;;;;;5024255;28;19925;-75
2022/11/21 06:26:23;;;;;;;;;;;3.60;99.90;;;;;;5016664;28;19975;-75
2022/11/21 06:28:50;;;;;;;;;;;3.70;99.90;;;;;;5015358;28;19979;-74
2022/11/21 06:31:23;;;;;;;;;;;3.70;99.90;;;;;;5036767;28;19933;-73
2022/11/21 06:33:56;;;;;;;;;;;3.70;99.90;;;;;;5048270;28;20329;-75
2022/11/21 06:36:27;;;;;;;;;;;3.60;99.90;;;;;;5036995;28;20338;-75
2022/11/21 06:38:59;;;;;;;;;;;3.60;99.90;;;;;;5020079;28;19929;-74
2022/11/21 06:41:30;;;;;;;;;;;3.60;99.90;;;;;;5040224;28;19925;-73
2022/11/21 06:44:02;;;;;;;;;;;3.60;99.90;;;;;;5030585;28;19928;-74
2022/11/21 06:46:34;;;;;;;;;;;3.60;99.90;;;;;;5039302;28;19931;-74
2022/11/21 06:49:05;;;;;;;;;;;3.60;99.90;;;;;;5039531;28;19928;-74
2022/11/21 06:51:32;;;;;;;;;;;3.60;99.90;;;;;;5057346;28;19929;-74
2022/11/21 06:54:03;;;;;;;;;;;3.60;99.90;;;;;;5039788;28;19975;-74
2022/11/21 06:56:31;;;;;;;;;;;3.60;99.90;;;;;;5039153;28;19925;-74
2022/11/21 06:59:02;;;;;;;;;;;3.50;99.90;;;;;;5032234;28;20361;-75
2022/11/21 07:01:29;;;;;;;;;;;3.50;99.90;;;;;;5057501;28;19928;-73
2022/11/21 07:03:55;;;;;;;;;;;3.50;99.90;;;;;;5039472;28;19987;-74
2022/11/21 07:06:27;;;;;;;;;;;3.50;99.90;;;;;;5036539;28;19924;-74
2022/11/21 07:08:59;;;;;;;;;;;3.50;99.90;;;;;;5022255;28;19955;-74
2022/11/21 07:11:25;;;;;;;;;;;3.40;99.90;;;;;;5052430;28;20272;-73
2022/11/21 07:13:57;;;;;;;;;;;3.40;99.90;;;;;;5057116;28;19979;-73
2022/11/21 07:16:31;;;;;;;;;;;3.40;99.90;;;;;;5037357;28;19994;-74
2022/11/21 07:18:59;;;;;;;;;;;3.40;99.90;;;;;;5016414;28;19979;-74
2022/11/21 07:21:30;;;;;;;;;;;3.50;99.90;;;;;;5036901;28;20291;-74
2022/11/21 07:24:02;;;;;;;;;;;3.50;99.90;;;;;;5041918;28;19929;-74
2022/11/21 07:26:33;;;;;;;;;;;3.50;99.90;;;;;;5021035;28;20303;-73
2022/11/21 07:29:05;;;;;;;;;;;3.50;99.90;;;;;;5018981;28;19971;-72
2022/11/21 07:31:36;;;;;;;;;;;3.50;99.90;;;;;;5028269;28;19948;-77
2022/11/21 07:34:08;;;;;;;;;;;3.50;99.90;;;;;;5033792;28;20403;-73
2022/11/21 07:36:40;;;;;;;;;;;3.50;99.90;;;;;;5046643;28;19928;-73
2022/11/21 07:39:11;;;;;;;;;;;3.60;99.90;;;;;;5052817;28;19931;-74
2022/11/21 07:41:38;;;;;;;;;;;3.60;99.90;;;;;;5029078;28;19924;-74
2022/11/21 07:44:10;;;;;;;;;;;3.70;99.90;;;;;;5028261;28;20361;-75
2022/11/21 07:46:41;;;;;;;;;;;3.70;99.90;;;;;;5020110;28;20354;-74
2022/11/21 07:49:13;;;;;;;;;;;3.70;99.90;;;;;;5052945;28;19929;-73
2022/11/21 07:51:44;;;;;;;;;;;3.80;99.90;;;;;;5020287;28;20346;-73
2022/11/21 07:54:16;;;;;;;;;;;3.80;99.90;;;;;;5054157;28;19974;-74
2022/11/21 07:56:47;;;;;;;;;;;3.90;99.90;;;;;;5019667;28;20002;-73
2022/11/21 07:59:19;;;;;;;;;;;3.90;99.90;;;;;;5032981;28;19925;-72
2022/11/21 08:01:51;;;;;;;;;;;3.90;99.90;;;;;;5054188;28;19925;-74
2022/11/21 08:04:22;;;;;;;;;;;4.00;99.90;;;;;;5017432;28;20388;-74
2022/11/21 08:06:54;;;;;;;;;;;4.00;99.90;;;;;;5014054;28;19925;-73
2022/11/21 08:09:21;;;;;;;;;;;4.00;99.90;;;;;;5033594;28;19928;-73
2022/11/21 08:11:52;;;;;;;;;;;4.00;99.90;;;;;;5053239;28;19924;-73
2022/11/21 08:14:24;;;;;;;;;;;4.00;99.90;;;;;;5035166;28;19932;-74
2022/11/21 08:16:51;;;;;;;;;;;4.10;99.90;;;;;;5030931;28;20379;-74
2022/11/21 08:19:23;;;;;;;;;;;4.10;99.90;;;;;;5013849;28;19929;-73
2022/11/21 08:21:54;;;;;;;;;;;4.10;99.90;;;;;;5016367;28;19925;-75
2022/11/21 08:24:21;;;;;;;;;;;4.20;99.90;;;;;;5049008;28;19928;-74
2022/11/21 08:26:53;;;;;;;;;;;4.20;99.90;;;;;;5031728;28;19929;-73
2022/11/21 08:29:25;;;;;;;;;;;4.20;99.90;;;;;;5046700;28;19984;-74
2022/11/21 08:31:52;;;;;;;;;;;4.20;99.90;;;;;;5009482;28;19932;-74
2022/11/21 08:34:18;;;;;;;;;;;4.20;99.90;;;;;;5044731;28;19991;-72
2022/11/21 08:36:50;;;;;;;;;;;4.30;99.90;;;;;;5050498;28;19947;-72
2022/11/21 08:39:21;;;;;;;;;;;4.40;99.90;;;;;;5024146;28;19931;-72
2022/11/21 08:42:02;;;;;;;;;;;4.40;99.90;;;;;;5046425;28;19974;-73
2022/11/21 08:44:32;;;;;;;;;;;4.50;99.90;;;;;;5037688;28;19952;-73
2022/11/21 08:47:05;;;;;;;;;;;4.50;99.90;;;;;;5045048;28;20391;-73
2022/11/21 08:49:37;;;;;;;;;;;4.60;99.90;;;;;;5029014;28;20043;-73
2022/11/21 08:52:03;;;;;;;;;;;4.60;99.90;;;;;;5039424;28;19975;-73
2022/11/21 08:54:30;;;;;;;;;;;4.70;99.90;;;;;;5028981;28;19991;-72
2022/11/21 08:57:01;;;;;;;;;;;4.70;99.90;;;;;;5031345;28;19990;-72
2022/11/21 08:59:28;;;;;;;;;;;4.80;99.90;;;;;;5030963;28;19929;-72
2022/11/21 09:01:54;;;;;;;;;;;4.90;99.90;;;;;;5022076;28;19925;-72
2022/11/21 09:04:26;;;;;;;;;;;5.00;99.90;;;;;;5024157;28;20003;-72
2022/11/21 09:06:58;;;;;;;;;;;5.00;99.90;;;;;;5017084;28;19924;-73
2022/11/21 09:09:30;;;;;;;;;;;5.10;99.90;;;;;;5044857;28;19925;-73
2022/11/21 09:12:01;;;;;;;;;;;5.10;99.90;;;;;;5026459;28;20423;-72
2022/11/21 09:20:13;;;;;;;;;;;5.30;99.90;;;;;;5051837;28;19978;-73
2022/11/21 09:22:45;;;;;;;;;;;5.30;99.90;;;;;;5031707;28;19925;-73
2022/11/21 09:25:17;;;;;;;;;;;5.40;99.90;;;;;;5015141;28;20024;-74
2022/11/21 09:27:43;;;;;;;;;;;5.40;99.90;;;;;;5015955;28;19932;-73
2022/11/21 09:30:15;;;;;;;;;;;5.40;99.90;;;;;;5051871;28;19925;-74
2022/11/21 09:32:47;;;;;;;;;;;5.50;99.90;;;;;;5013545;28;19929;-73
2022/11/21 09:35:19;;;;;;;;;;;5.50;99.90;;;;;;5019746;28;19929;-74
2022/11/21 09:37:50;;;;;;;;;;;5.60;99.90;;;;;;5016405;28;19924;-74
2022/11/21 09:40:22;;;;;;;;;;;5.60;99.90;;;;;;5031873;28;19925;-74
2022/11/21 09:43:09;;;;;;;;;;;5.70;99.90;;;;;;5025379;28;20353;-74
2022/11/21 09:45:45;;;;;;;;;;;5.70;99.90;;;;;;5033854;28;20375;-73
2022/11/21 09:48:19;;;;;;;;;;;5.80;99.90;;;;;;5033326;28;19925;-73
2022/11/21 09:50:59;;;;;;;;;;;5.90;99.90;;;;;;5031055;28;19931;-72
2022/11/21 09:53:51;;;;;;;;;;;5.80;99.90;;;;;;5022196;28;19926;-73
2022/11/21 09:56:23;;;;;;;;;;;5.90;99.90;;;;;;5006816;28;19974;-73
2022/11/21 09:59:01;;;;;;;;;;;5.90;99.90;;;;;;5008867;28;19932;-74
2022/11/21 10:01:33;;;;;;;;;;;5.90;99.90;;;;;;5010248;28;19929;-73
2022/11/21 10:04:04;;;;;;;;;;;5.90;99.90;;;;;;5028775;28;19929;-73
2022/11/21 10:06:48;;;;;;;;;;;5.90;99.90;;;;;;5023251;28;19929;-73
2022/11/21 10:09:34;;;;;;;;;;;5.90;99.90;;;;;;5014133;28;19967;-72
2022/11/21 10:15:15;;;;;;;;;;;6.20;99.90;;;;;;5043673;28;19996;-74
2022/11/21 10:17:49;;;;;;;;;;;6.30;99.90;;;;;;5028064;28;19929;-73
2022/11/21 10:20:17;;;;;;;;;;;6.40;99.90;;;;;;5016011;28;20261;-73
2022/11/21 10:22:55;;;;;;;;;;;6.40;99.90;;;;;;5042667;28;19936;-72
2022/11/21 10:25:31;;;;;;;;;;;6.40;99.90;;;;;;5033562;28;20023;-72
2022/11/21 10:28:07;;;;;;;;;;;6.50;99.90;;;;;;5049734;28;19925;-73
2022/11/21 10:30:43;;;;;;;;;;;6.50;99.90;;;;;;5015945;28;19924;-73
2022/11/21 10:33:19;;;;;;;;;;;6.40;99.90;;;;;;5048869;28;19929;-73
2022/11/21 10:35:52;;;;;;;;;;;6.30;99.90;;;;;;5016118;28;19929;-72
2022/11/21 10:38:25;;;;;;;;;;;6.30;99.90;;;;;;5048997;28;19929;-75
2022/11/21 10:41:03;;;;;;;;;;;6.20;99.90;;;;;;5035686;28;19933;-75
2022/11/21 10:46:31;;;;;;;;;;;6.00;99.90;;;;;;5032653;28;20387;-74
2022/11/21 10:49:03;;;;;;;;;;;5.90;99.90;;;;;;5033579;28;19933;-74
2022/11/21 10:51:44;;;;;;;;;;;5.80;99.90;;;;;;5020793;28;19928;-73
2022/11/21 10:54:34;;;;;;;;;;;5.70;99.90;;;;;;5021464;28;19928;-72
2022/11/21 10:57:13;;;;;;;;;;;5.80;99.90;;;;;;5033671;28;19929;-73
2022/11/21 11:00:03;;;;;;;;;;;5.90;99.90;;;;;;5020412;28;19932;-73
2022/11/21 11:02:34;;;;;;;;;;;6.10;99.90;;;;;;5035691;28;19925;-73
2022/11/21 11:05:18;;;;;;;;;;;6.20;99.90;;;;;;5054800;28;19929;-72
2022/11/21 11:08:03;;;;;;;;;;;6.30;99.90;;;;;;5027495;28;20342;-72
2022/11/21 11:10:35;;;;;;;;;;;6.30;99.90;;;;;;5028014;28;19924;-73
2022/11/21 11:16:05;;;;;;;;;;;6.40;99.90;;;;;;5053389;28;19924;-73
2022/11/21 11:18:34;;;;;;;;;;;6.50;99.90;;;;;;5016400;28;19925;-72
2022/11/21 11:21:25;;;;;;;;;;;6.60;99.90;;;;;;5034302;28;19929;-73
2022/11/21 11:24:09;;;;;;;;;;;6.80;99.90;;;;;;5036467;28;19971;-73
2022/11/21 11:26:47;;;;;;;;;;;6.90;99.90;;;;;;5020678;28;19925;-75
2022/11/21 11:29:23;;;;;;;;;;;7.00;99.90;;;;;;5035580;28;19925;-71
2022/11/21 11:31:57;;;;;;;;;;;7.00;99.90;;;;;;5034672;28;19924;-74
2022/11/21 11:34:39;;;;;;;;;;;7.20;99.90;;;;;;5017998;28;19933;-75
2022/11/21 11:37:12;;;;;;;;;;;7.20;99.90;;;;;;5036256;28;20315;-75
2022/11/21 11:39:49;;;;;;;;;;;7.30;99.90;;;;;;5016862;28;19936;-74
2022/11/21 11:48:27;;;;;;;;;;;7.40;99.90;;;;;;5049523;28;19932;-74
2022/11/21 11:51:00;;;;;;;;;;;7.40;99.90;;;;;;5046162;28;20392;-73
2022/11/21 11:53:35;;;;;;;;;;;7.40;99.90;;;;;;5019648;28;19928;-75
2022/11/21 11:56:05;;;;;;;;;;;7.50;99.90;;;;;;5019917;28;19971;-73
2022/11/21 11:58:43;;;;;;;;;;;7.60;99.90;;;;;;5035536;28;19951;-74
2022/11/21 12:01:20;;;;;;;;;;;7.70;99.90;;;;;;5046408;28;19924;-73
2022/11/21 12:03:52;;;;;;;;;;;7.80;99.90;;;;;;5054230;28;20440;-72
2022/11/21 12:06:24;;;;;;;;;;;7.70;99.90;;;;;;5040985;28;19925;-73
2022/11/21 12:09:02;;;;;;;;;;;7.60;99.90;;;;;;5048553;28;19929;-74
2022/11/21 12:17:34;;;;;;;;;;;7.90;99.90;;;;;;5033737;28;20387;-74
2022/11/21 12:20:35;;;;;;;;;;;7.90;99.90;;;;;;5020664;28;20008;-74
2022/11/21 12:23:09;;;;;;;;;;;8.00;99.90;;;;;;5021013;28;19951;-74
2022/11/21 12:25:59;;;;;;;;;;;7.90;99.90;;;;;;5034573;28;19925;-73
2022/11/21 12:28:43;;;;;;;;;;;8.00;99.90;;;;;;5024955;28;19925;-73
2022/11/21 12:31:28;;;;;;;;;;;8.10;99.90;;;;;;5030685;28;19931;-73
2022/11/21 12:34:07;;;;;;;;;;;8.10;99.90;;;;;;5049751;28;19987;-73
2022/11/21 12:36:57;;;;;;;;;;;8.00;99.90;;;;;;5030140;28;19928;-73
2022/11/21 12:39:41;;;;;;;;;;;7.90;99.90;;;;;;5049648;28;19936;-72
2022/11/21 12:45:27;;;;;;;;;;;8.00;99.90;;;;;;5048667;28;20426;-73
2022/11/21 12:54:29;;;;;;;;;;;8.60;99.90;;;;;;5048828;28;19929;-73
2022/11/21 12:56:59;;;;;;;;;;;8.80;99.90;;;;;;5033476;28;19925;-73
2022/11/21 12:59:34;;;;;;;;;;;8.90;99.90;;;;;;5033002;28;20387;-75
2022/11/21 13:02:16;;;;;;;;;;;8.90;99.90;;;;;;5030499;28;19952;-74
2022/11/21 13:04:44;;;;;;;;;;;8.90;99.90;;;;;;5015868;28;19928;-73
2022/11/21 13:07:17;;;;;;;;;;;8.90;99.90;;;;;;5015799;28;19928;-73
2022/11/21 13:09:51;;;;;;;;;;;8.80;99.90;;;;;;5022164;28;19925;-74
2022/11/21 13:12:38;;;;;;;;;;;8.80;99.90;;;;;;5030278;28;19925;-73
2022/11/21 13:15:13;;;;;;;;;;;8.80;99.90;;;;;;5027280;28;20515;-72
2022/11/21 13:17:54;;;;;;;;;;;8.70;99.90;;;;;;5021148;28;20402;-72
2022/11/21 13:20:21;;;;;;;;;;;8.60;99.90;;;;;;5043722;28;19928;-72
2022/11/21 13:22:48;;;;;;;;;;;8.50;99.90;;;;;;5027066;28;19924;-74
2022/11/21 13:25:30;;;;;;;;;;;8.30;99.90;;;;;;5022423;28;19925;-75
2022/11/21 13:28:12;;;;;;;;;;;8.10;99.90;;;;;;5022618;28;19951;-73
2022/11/21 13:30:47;;;;;;;;;;;7.90;99.90;;;;;;5045386;28;19928;-73
2022/11/21 13:33:34;;;;;;;;;;;7.80;99.90;;;;;;5045362;28;19986;-73
2022/11/21 13:36:05;;;;;;;;;;;7.70;99.90;;;;;;5024754;28;20337;-72
2022/11/21 13:39:06;;;;;;;;;;;7.80;99.90;;;;;;5013407;28;19979;-73
2022/11/21 13:44:37;;;;;;;;;;;7.90;99.90;;;;;;5025645;28;20461;-74
2022/11/21 13:47:24;;;;;;;;;;;8.00;99.90;;;;;;5013734;28;19979;-75
2022/11/21 13:49:59;;;;;;;;;;;8.20;99.90;;;;;;5016737;28;20256;-75
2022/11/21 13:52:33;;;;;;;;;;;8.30;99.90;;;;;;5008938;28;19970;-75
2022/11/21 13:55:03;;;;;;;;;;;8.40;99.90;;;;;;5044602;28;19955;-75
2022/11/21 13:57:45;;;;;;;;;;;8.40;99.90;;;;;;5020174;28;19925;-73
2022/11/21 14:00:30;;;;;;;;;;;8.40;99.90;;;;;;5019236;28;19959;-74
2022/11/21 14:03:17;;;;;;;;;;;8.40;99.90;;;;;;5022435;28;19929;-74
2022/11/21 14:05:52;;;;;;;;;;;8.30;99.90;;;;;;4960819;28;21104;-74
2022/11/21 14:08:20;;;;;;;;;;;8.30;99.90;;;;;;5026801;28;19925;-72
2022/11/21 14:10:53;;;;;;;;;;;8.30;99.90;;;;;;5023444;28;19925;-75
2022/11/21 14:13:27;;;;;;;;;;;8.20;99.90;;;;;;5026603;28;19979;-73
2022/11/21 14:16:17;;;;;;;;;;;8.10;99.90;;;;;;5024045;28;20307;-74
2022/11/21 14:18:49;;;;;;;;;;;8.10;99.90;;;;;;5022901;28;19924;-74
2022/11/21 14:21:25;;;;;;;;;;;7.90;99.90;;;;;;5020173;28;19976;-73
2022/11/21 14:23:59;;;;;;;;;;;7.80;99.90;;;;;;5025857;28;19928;-71
2022/11/21 14:26:33;;;;;;;;;;;7.60;99.90;;;;;;5027797;28;19924;-73
2022/11/21 14:29:25;;;;;;;;;;;7.50;99.90;;;;;;5049239;28;19925;-73
2022/11/21 14:31:56;;;;;;;;;;;7.50;99.90;;;;;;5029752;28;20022;-73
2022/11/21 14:34:29;;;;;;;;;;;7.50;99.90;;;;;;5008553;28;19929;-72
2022/11/21 14:36:57;;;;;;;;;;;7.40;99.90;;;;;;5028333;28;19929;-74
2022/11/21 14:39:31;;;;;;;;;;;7.20;99.90;;;;;;5027988;28;19925;-73
2022/11/21 14:42:04;;;;;;;;;;;6.90;99.90;;;;;;5048764;28;19932;-73
2022/11/21 14:44:35;;;;;;;;;;;6.70;99.90;;;;;;5032911;28;19928;-73
2022/11/21 14:47:07;;;;;;;;;;;6.50;99.90;;;;;;5031529;28;19947;-73
2022/11/21 14:49:46;;;;;;;;;;;6.30;99.90;;;;;;5048763;28;19925;-73
2022/11/21 14:52:21;;;;;;;;;;;6.20;99.90;;;;;;5031856;28;19928;-73
2022/11/21 14:54:58;;;;;;;;;;;6.10;99.90;;;;;;5027033;28;19933;-73
2022/11/21 14:57:27;;;;;;;;;;;6.00;99.90;;;;;;5024266;28;19929;-74
2022/11/21 14:59:59;;;;;;;;;;;5.90;99.90;;;;;;5027043;28;19999;-73
2022/11/21 15:02:27;;;;;;;;;;;5.80;99.90;;;;;;5045023;28;19936;-72
2022/11/21 15:05:00;;;;;;;;;;;5.70;99.90;;;;;;5019136;28;20395;-74
2022/11/21 15:07:28;;;;;;;;;;;5.50;99.90;;;;;;5047430;28;19994;-74
2022/11/21 15:10:00;;;;;;;;;;;5.30;99.90;;;;;;5049451;28;19979;-73
2022/11/21 15:12:31;;;;;;;;;;;5.30;99.90;;;;;;5025755;28;19974;-73
2022/11/21 15:15:05;;;;;;;;;;;5.20;99.90;;;;;;5024793;28;19928;-72
2022/11/21 15:17:37;;;;;;;;;;;5.20;99.90;;;;;;5041860;28;19928;-73
2022/11/21 15:20:11;;;;;;;;;;;5.30;99.90;;;;;;5014503;28;19925;-73
2022/11/21 15:22:43;;;;;;;;;;;5.20;99.90;;;;;;5053754;28;19974;-73
2022/11/21 15:25:19;;;;;;;;;;;5.10;99.90;;;;;;5035970;28;19925;-73
2022/11/21 15:28:04;;;;;;;;;;;4.90;99.90;;;;;;5026951;28;19925;-74
2022/11/21 15:30:37;;;;;;;;;;;4.80;99.90;;;;;;5035619;28;19925;-73
2022/11/21 15:33:15;;;;;;;;;;;4.70;99.90;;;;;;5018620;28;19928;-74
2022/11/21 15:35:52;;;;;;;;;;;4.60;99.90;;;;;;5045083;28;19936;-72
2022/11/21 15:38:42;;;;;;;;;;;4.50;99.90;;;;;;5032467;28;19929;-73
2022/11/21 15:41:09;;;;;;;;;;;4.50;99.90;;;;;;5019237;28;19925;-74
2022/11/21 15:43:40;;;;;;;;;;;4.40;99.90;;;;;;5036583;28;19925;-76
2022/11/21 15:46:14;;;;;;;;;;;4.30;99.90;;;;;;5030458;28;20395;-74
2022/11/21 15:48:55;;;;;;;;;;;4.50;99.90;;;;;;5027174;28;19928;-73
2022/11/21 15:51:38;;;;;;;;;;;4.50;99.90;;;;;;5016490;28;19928;-73